Terminal Aerodrome Forecast
Issued by NWS

Home | Current Version | Previous Version | Text Only | Print | Product List | Glossary On
Versions: 1 2 3 4 5 6 7 8 9 10 11 12 13 14 15 16 17 18
000
FTUS45 KABQ 261100
TAFTCC
TAF
KTCC 261136Z 2612/2712 27008KT P6SM BKN100
     FM261600 23009KT P6SM BKN100
     FM262000 17015G25KT P6SM VCSH OVC100
     FM270200 05015G25KT P6SM OVC025
      TEMPO 2702/2706 5SM -RA OVC015
     FM270600 04014KT 4SM -RA OVC012=

USA.gov is the U.S. government's official web portal to all federal, state and local government web resources and services.